sensor_id;sensor_type;location;lat;lon;timestamp;P1;durP1;ratioP1;P2;durP2;ratioP2
71947;SDS011;63257;55.082;38.772;2022-12-13T00:01:29;9.10;;;4.13;;
71947;SDS011;63257;55.082;38.772;2022-12-13T00:03:56;9.13;;;3.45;;
71947;SDS011;63257;55.082;38.772;2022-12-13T00:06:25;8.88;;;3.92;;
71947;SDS011;63257;55.082;38.772;2022-12-13T00:08:51;9.32;;;4.15;;
71947;SDS011;63257;55.082;38.772;2022-12-13T00:11:18;8.73;;;4.50;;
71947;SDS011;63257;55.082;38.772;2022-12-13T00:13:45;9.75;;;4.10;;
71947;SDS011;63257;55.082;38.772;2022-12-13T00:16:13;12.37;;;4.57;;
71947;SDS011;63257;55.082;38.772;2022-12-13T00:18:41;11.10;;;4.85;;
71947;SDS011;63257;55.082;38.772;2022-12-13T00:21:10;10.00;;;3.80;;
71947;SDS011;63257;55.082;38.772;2022-12-13T00:23:39;9.37;;;4.20;;
71947;SDS011;63257;55.082;38.772;2022-12-13T00:26:06;9.48;;;3.78;;
71947;SDS011;63257;55.082;38.772;2022-12-13T00:28:35;8.32;;;3.97;;
71947;SDS011;63257;55.082;38.772;2022-12-13T00:31:02;8.50;;;3.77;;
71947;SDS011;63257;55.082;38.772;2022-12-13T00:33:28;8.85;;;3.60;;
71947;SDS011;63257;55.082;38.772;2022-12-13T00:35:55;13.68;;;4.00;;
71947;SDS011;63257;55.082;38.772;2022-12-13T00:38:21;10.35;;;3.70;;
71947;SDS011;63257;55.082;38.772;2022-12-13T00:40:48;14.75;;;4.18;;
71947;SDS011;63257;55.082;38.772;2022-12-13T00:43:15;9.38;;;4.07;;
71947;SDS011;63257;55.082;38.772;2022-12-13T00:45:43;12.27;;;4.60;;
71947;SDS011;63257;55.082;38.772;2022-12-13T00:48:08;7.67;;;3.77;;
71947;SDS011;63257;55.082;38.772;2022-12-13T00:50:34;7.50;;;3.40;;
71947;SDS011;63257;55.082;38.772;2022-12-13T00:53:02;8.93;;;3.88;;
71947;SDS011;63257;55.082;38.772;2022-12-13T00:55:28;7.87;;;3.10;;
71947;SDS011;63257;55.082;38.772;2022-12-13T00:57:54;8.20;;;3.22;;
71947;SDS011;63257;55.082;38.772;2022-12-13T01:00:20;10.03;;;3.97;;
71947;SDS011;63257;55.082;38.772;2022-12-13T01:02:46;8.48;;;3.47;;
71947;SDS011;63257;55.082;38.772;2022-12-13T01:05:12;9.80;;;3.65;;
71947;SDS011;63257;55.082;38.772;2022-12-13T01:07:39;8.63;;;3.57;;
71947;SDS011;63257;55.082;38.772;2022-12-13T01:10:10;8.40;;;3.25;;
71947;SDS011;63257;55.082;38.772;2022-12-13T01:12:38;9.20;;;3.20;;
71947;SDS011;63257;55.082;38.772;2022-12-13T01:15:04;8.40;;;3.50;;
71947;SDS011;63257;55.082;38.772;2022-12-13T01:17:33;8.30;;;3.33;;
71947;SDS011;63257;55.082;38.772;2022-12-13T01:20:01;10.55;;;3.58;;
71947;SDS011;63257;55.082;38.772;2022-12-13T01:22:29;7.60;;;3.30;;
71947;SDS011;63257;55.082;38.772;2022-12-13T01:24:55;8.98;;;3.30;;
71947;SDS011;63257;55.082;38.772;2022-12-13T01:27:21;9.40;;;3.27;;
71947;SDS011;63257;55.082;38.772;2022-12-13T01:29:47;7.95;;;3.13;;
71947;SDS011;63257;55.082;38.772;2022-12-13T01:32:12;8.23;;;3.20;;
71947;SDS011;63257;55.082;38.772;2022-12-13T01:34:38;9.07;;;3.70;;
71947;SDS011;63257;55.082;38.772;2022-12-13T01:37:04;9.33;;;3.60;;
71947;SDS011;63257;55.082;38.772;2022-12-13T01:39:30;10.10;;;4.00;;
71947;SDS011;63257;55.082;38.772;2022-12-13T01:41:55;9.03;;;4.00;;
71947;SDS011;63257;55.082;38.772;2022-12-13T01:47:18;8.18;;;3.10;;
71947;SDS011;63257;55.082;38.772;2022-12-13T01:49:49;9.23;;;3.28;;
71947;SDS011;63257;55.082;38.772;2022-12-13T01:52:16;8.30;;;3.47;;
71947;SDS011;63257;55.082;38.772;2022-12-13T01:54:45;8.57;;;2.95;;
71947;SDS011;63257;55.082;38.772;2022-12-13T01:57:14;6.93;;;2.88;;
71947;SDS011;63257;55.082;38.772;2022-12-13T01:59:42;7.10;;;2.80;;
71947;SDS011;63257;55.082;38.772;2022-12-13T02:02:10;6.57;;;2.80;;
71947;SDS011;63257;55.082;38.772;2022-12-13T02:07:10;5.60;;;2.73;;
71947;SDS011;63257;55.082;38.772;2022-12-13T02:09:41;7.00;;;2.90;;
71947;SDS011;63257;55.082;38.772;2022-12-13T02:12:08;6.60;;;3.10;;
71947;SDS011;63257;55.082;38.772;2022-12-13T02:14:36;5.50;;;2.33;;
71947;SDS011;63257;55.082;38.772;2022-12-13T02:20:07;6.07;;;2.67;;
71947;SDS011;63257;55.082;38.772;2022-12-13T02:22:56;7.15;;;2.67;;
71947;SDS011;63257;55.082;38.772;2022-12-13T02:31:31;7.97;;;2.97;;
71947;SDS011;63257;55.082;38.772;2022-12-13T02:36:42;6.90;;;2.92;;
71947;SDS011;63257;55.082;38.772;2022-12-13T02:39:36;7.15;;;3.15;;
71947;SDS011;63257;55.082;38.772;2022-12-13T02:42:17;7.78;;;2.78;;
71947;SDS011;63257;55.082;38.772;2022-12-13T02:45:13;6.45;;;2.80;;
71947;SDS011;63257;55.082;38.772;2022-12-13T02:47:42;6.32;;;2.88;;
71947;SDS011;63257;55.082;38.772;2022-12-13T02:50:10;7.68;;;2.70;;
71947;SDS011;63257;55.082;38.772;2022-12-13T02:52:39;7.20;;;2.83;;
71947;SDS011;63257;55.082;38.772;2022-12-13T02:55:10;8.02;;;3.30;;
71947;SDS011;63257;55.082;38.772;2022-12-13T02:57:40;8.77;;;3.28;;
71947;SDS011;63257;55.082;38.772;2022-12-13T03:14:44;7.60;;;2.70;;
71947;SDS011;63257;55.082;38.772;2022-12-13T03:17:20;6.75;;;2.72;;
71947;SDS011;63257;55.082;38.772;2022-12-13T03:19:51;6.97;;;2.70;;
71947;SDS011;63257;55.082;38.772;2022-12-13T03:22:18;6.25;;;2.20;;
71947;SDS011;63257;55.082;38.772;2022-12-13T03:24:45;7.35;;;2.88;;
71947;SDS011;63257;55.082;38.772;2022-12-13T03:27:11;8.93;;;3.50;;
71947;SDS011;63257;55.082;38.772;2022-12-13T03:29:40;7.07;;;2.83;;
71947;SDS011;63257;55.082;38.772;2022-12-13T03:32:06;6.80;;;2.70;;
71947;SDS011;63257;55.082;38.772;2022-12-13T03:34:32;7.43;;;2.88;;
71947;SDS011;63257;55.082;38.772;2022-12-13T03:36:57;6.20;;;2.50;;
71947;SDS011;63257;55.082;38.772;2022-12-13T03:39:23;6.38;;;2.75;;
71947;SDS011;63257;55.082;38.772;2022-12-13T03:41:49;6.10;;;2.60;;
71947;SDS011;63257;55.082;38.772;2022-12-13T03:44:16;6.50;;;2.33;;
71947;SDS011;63257;55.082;38.772;2022-12-13T03:46:43;7.28;;;2.45;;
71947;SDS011;63257;55.082;38.772;2022-12-13T03:49:09;6.43;;;2.50;;
71947;SDS011;63257;55.082;38.772;2022-12-13T03:51:35;5.53;;;2.50;;
71947;SDS011;63257;55.082;38.772;2022-12-13T03:54:01;5.85;;;2.30;;
71947;SDS011;63257;55.082;38.772;2022-12-13T03:56:27;7.03;;;2.80;;
71947;SDS011;63257;55.082;38.772;2022-12-13T03:58:53;5.25;;;2.28;;
71947;SDS011;63257;55.082;38.772;2022-12-13T04:01:19;6.25;;;2.38;;
71947;SDS011;63257;55.082;38.772;2022-12-13T04:03:46;7.50;;;2.60;;
71947;SDS011;63257;55.082;38.772;2022-12-13T04:06:12;8.13;;;2.72;;
71947;SDS011;63257;55.082;38.772;2022-12-13T04:08:40;8.35;;;2.72;;
71947;SDS011;63257;55.082;38.772;2022-12-13T04:11:06;6.10;;;2.60;;
71947;SDS011;63257;55.082;38.772;2022-12-13T04:13:54;7.70;;;3.00;;
71947;SDS011;63257;55.082;38.772;2022-12-13T04:16:29;7.18;;;2.97;;
71947;SDS011;63257;55.082;38.772;2022-12-13T04:18:55;9.70;;;4.00;;
71947;SDS011;63257;55.082;38.772;2022-12-13T04:21:21;14.57;;;4.97;;
71947;SDS011;63257;55.082;38.772;2022-12-13T04:23:49;13.53;;;4.47;;
71947;SDS011;63257;55.082;38.772;2022-12-13T04:26:15;13.63;;;4.47;;
71947;SDS011;63257;55.082;38.772;2022-12-13T04:28:41;14.50;;;4.27;;
71947;SDS011;63257;55.082;38.772;2022-12-13T04:31:07;11.77;;;3.90;;
71947;SDS011;63257;55.082;38.772;2022-12-13T04:33:33;10.10;;;3.65;;
71947;SDS011;63257;55.082;38.772;2022-12-13T04:36:00;9.27;;;3.50;;
71947;SDS011;63257;55.082;38.772;2022-12-13T04:38:25;7.78;;;3.13;;
71947;SDS011;63257;55.082;38.772;2022-12-13T04:40:51;8.35;;;3.28;;
71947;SDS011;63257;55.082;38.772;2022-12-13T04:43:17;7.85;;;2.95;;
71947;SDS011;63257;55.082;38.772;2022-12-13T04:45:43;9.80;;;3.50;;
71947;SDS011;63257;55.082;38.772;2022-12-13T04:48:09;8.43;;;3.83;;
71947;SDS011;63257;55.082;38.772;2022-12-13T04:50:35;8.88;;;3.33;;
71947;SDS011;63257;55.082;38.772;2022-12-13T04:53:01;7.20;;;3.13;;
71947;SDS011;63257;55.082;38.772;2022-12-13T04:55:28;9.20;;;2.70;;
71947;SDS011;63257;55.082;38.772;2022-12-13T04:57:54;6.57;;;2.75;;
71947;SDS011;63257;55.082;38.772;2022-12-13T05:00:20;10.70;;;3.40;;
71947;SDS011;63257;55.082;38.772;2022-12-13T05:02:47;7.50;;;3.00;;
71947;SDS011;63257;55.082;38.772;2022-12-13T05:05:13;7.97;;;3.10;;
71947;SDS011;63257;55.082;38.772;2022-12-13T05:07:39;9.20;;;4.25;;
71947;SDS011;63257;55.082;38.772;2022-12-13T05:10:05;8.33;;;3.87;;
71947;SDS011;63257;55.082;38.772;2022-12-13T05:12:32;9.70;;;3.38;;
71947;SDS011;63257;55.082;38.772;2022-12-13T05:14:58;10.55;;;3.60;;
71947;SDS011;63257;55.082;38.772;2022-12-13T05:17:23;7.90;;;2.70;;
71947;SDS011;63257;55.082;38.772;2022-12-13T05:19:50;5.68;;;2.70;;
71947;SDS011;63257;55.082;38.772;2022-12-13T05:22:16;6.63;;;2.50;;
71947;SDS011;63257;55.082;38.772;2022-12-13T05:24:42;5.93;;;2.95;;
71947;SDS011;63257;55.082;38.772;2022-12-13T05:27:09;7.13;;;2.55;;
71947;SDS011;63257;55.082;38.772;2022-12-13T05:29:36;5.32;;;2.42;;
71947;SDS011;63257;55.082;38.772;2022-12-13T05:32:02;5.70;;;2.55;;
71947;SDS011;63257;55.082;38.772;2022-12-13T05:34:28;6.60;;;2.60;;
71947;SDS011;63257;55.082;38.772;2022-12-13T05:36:54;6.53;;;2.55;;
71947;SDS011;63257;55.082;38.772;2022-12-13T05:39:21;5.95;;;2.50;;
71947;SDS011;63257;55.082;38.772;2022-12-13T05:41:47;7.13;;;2.72;;
71947;SDS011;63257;55.082;38.772;2022-12-13T05:44:13;7.57;;;2.78;;
71947;SDS011;63257;55.082;38.772;2022-12-13T05:46:39;5.45;;;2.58;;
71947;SDS011;63257;55.082;38.772;2022-12-13T05:49:05;6.50;;;2.70;;
71947;SDS011;63257;55.082;38.772;2022-12-13T05:51:32;7.47;;;3.08;;
71947;SDS011;63257;55.082;38.772;2022-12-13T05:53:57;7.57;;;3.40;;
71947;SDS011;63257;55.082;38.772;2022-12-13T05:56:23;7.72;;;3.00;;
71947;SDS011;63257;55.082;38.772;2022-12-13T05:58:49;6.13;;;2.40;;
71947;SDS011;63257;55.082;38.772;2022-12-13T06:01:15;6.75;;;2.83;;
71947;SDS011;63257;55.082;38.772;2022-12-13T06:03:44;5.97;;;2.40;;
71947;SDS011;63257;55.082;38.772;2022-12-13T06:06:11;6.77;;;2.67;;
71947;SDS011;63257;55.082;38.772;2022-12-13T06:08:37;7.97;;;2.67;;
71947;SDS011;63257;55.082;38.772;2022-12-13T06:11:04;6.30;;;2.70;;
71947;SDS011;63257;55.082;38.772;2022-12-13T06:13:32;6.80;;;2.90;;
71947;SDS011;63257;55.082;38.772;2022-12-13T06:16:01;5.30;;;2.40;;
71947;SDS011;63257;55.082;38.772;2022-12-13T06:18:30;6.35;;;2.70;;
71947;SDS011;63257;55.082;38.772;2022-12-13T06:20:58;7.88;;;2.70;;
71947;SDS011;63257;55.082;38.772;2022-12-13T06:23:26;6.70;;;2.60;;
71947;SDS011;63257;55.082;38.772;2022-12-13T06:25:52;6.03;;;2.70;;
71947;SDS011;63257;55.082;38.772;2022-12-13T06:28:18;6.85;;;2.58;;
71947;SDS011;63257;55.082;38.772;2022-12-13T06:30:45;5.53;;;2.50;;
71947;SDS011;63257;55.082;38.772;2022-12-13T06:33:11;5.90;;;2.38;;
71947;SDS011;63257;55.082;38.772;2022-12-13T06:35:37;7.40;;;2.78;;
71947;SDS011;63257;55.082;38.772;2022-12-13T06:38:03;9.27;;;4.20;;
71947;SDS011;63257;55.082;38.772;2022-12-13T06:40:30;5.20;;;2.40;;
71947;SDS011;63257;55.082;38.772;2022-12-13T06:42:56;5.50;;;2.20;;
71947;SDS011;63257;55.082;38.772;2022-12-13T06:45:22;4.53;;;2.00;;
71947;SDS011;63257;55.082;38.772;2022-12-13T06:47:49;6.10;;;2.55;;
71947;SDS011;63257;55.082;38.772;2022-12-13T06:50:15;5.47;;;2.33;;
71947;SDS011;63257;55.082;38.772;2022-12-13T06:52:42;7.20;;;3.03;;
71947;SDS011;63257;55.082;38.772;2022-12-13T06:55:11;5.60;;;2.42;;
71947;SDS011;63257;55.082;38.772;2022-12-13T06:57:38;6.13;;;2.70;;
71947;SDS011;63257;55.082;38.772;2022-12-13T07:00:04;5.85;;;2.60;;
71947;SDS011;63257;55.082;38.772;2022-12-13T07:02:31;6.30;;;2.88;;
71947;SDS011;63257;55.082;38.772;2022-12-13T07:04:56;12.57;;;2.95;;
71947;SDS011;63257;55.082;38.772;2022-12-13T07:07:23;5.27;;;2.40;;
71947;SDS011;63257;55.082;38.772;2022-12-13T07:09:50;6.15;;;2.72;;
71947;SDS011;63257;55.082;38.772;2022-12-13T07:12:16;15.30;;;6.22;;
71947;SDS011;63257;55.082;38.772;2022-12-13T07:14:43;12.48;;;5.63;;
71947;SDS011;63257;55.082;38.772;2022-12-13T07:17:09;9.13;;;3.92;;
71947;SDS011;63257;55.082;38.772;2022-12-13T07:19:37;7.35;;;3.30;;
71947;SDS011;63257;55.082;38.772;2022-12-13T07:22:05;8.48;;;2.90;;
71947;SDS011;63257;55.082;38.772;2022-12-13T07:24:32;7.30;;;2.92;;
71947;SDS011;63257;55.082;38.772;2022-12-13T07:31:11;7.90;;;2.70;;
71947;SDS011;63257;55.082;38.772;2022-12-13T07:33:38;5.67;;;2.43;;
71947;SDS011;63257;55.082;38.772;2022-12-13T07:36:06;5.68;;;2.55;;
71947;SDS011;63257;55.082;38.772;2022-12-13T07:42:55;5.43;;;2.33;;
71947;SDS011;63257;55.082;38.772;2022-12-13T07:45:22;4.70;;;1.90;;
71947;SDS011;63257;55.082;38.772;2022-12-13T07:52:11;5.07;;;2.10;;
71947;SDS011;63257;55.082;38.772;2022-12-13T07:54:37;5.40;;;2.15;;
71947;SDS011;63257;55.082;38.772;2022-12-13T07:57:02;5.80;;;2.17;;
71947;SDS011;63257;55.082;38.772;2022-12-13T07:59:28;5.40;;;1.97;;
71947;SDS011;63257;55.082;38.772;2022-12-13T08:01:54;5.40;;;2.10;;
71947;SDS011;63257;55.082;38.772;2022-12-13T08:04:21;4.90;;;2.00;;
71947;SDS011;63257;55.082;38.772;2022-12-13T08:06:47;7.22;;;3.28;;
71947;SDS011;63257;55.082;38.772;2022-12-13T08:09:12;6.13;;;1.98;;
71947;SDS011;63257;55.082;38.772;2022-12-13T08:11:38;5.40;;;2.00;;
71947;SDS011;63257;55.082;38.772;2022-12-13T08:14:04;4.07;;;2.00;;
71947;SDS011;63257;55.082;38.772;2022-12-13T08:16:30;6.23;;;2.60;;
71947;SDS011;63257;55.082;38.772;2022-12-13T08:18:56;5.45;;;2.22;;
71947;SDS011;63257;55.082;38.772;2022-12-13T08:21:23;5.00;;;2.03;;
71947;SDS011;63257;55.082;38.772;2022-12-13T08:23:49;6.33;;;2.97;;
71947;SDS011;63257;55.082;38.772;2022-12-13T08:26:15;4.60;;;1.80;;
71947;SDS011;63257;55.082;38.772;2022-12-13T08:28:41;5.70;;;2.05;;
71947;SDS011;63257;55.082;38.772;2022-12-13T08:31:08;5.90;;;2.00;;
71947;SDS011;63257;55.082;38.772;2022-12-13T08:33:36;5.15;;;2.00;;
71947;SDS011;63257;55.082;38.772;2022-12-13T08:36:07;4.53;;;2.10;;
71947;SDS011;63257;55.082;38.772;2022-12-13T08:38:37;4.63;;;1.80;;
71947;SDS011;63257;55.082;38.772;2022-12-13T08:41:04;4.53;;;1.90;;
71947;SDS011;63257;55.082;38.772;2022-12-13T08:43:30;4.57;;;1.67;;
71947;SDS011;63257;55.082;38.772;2022-12-13T08:45:56;4.40;;;1.85;;
71947;SDS011;63257;55.082;38.772;2022-12-13T08:48:23;3.60;;;1.55;;
71947;SDS011;63257;55.082;38.772;2022-12-13T08:50:49;5.82;;;2.08;;
71947;SDS011;63257;55.082;38.772;2022-12-13T08:53:15;4.00;;;1.63;;
71947;SDS011;63257;55.082;38.772;2022-12-13T08:55:41;7.35;;;2.85;;
71947;SDS011;63257;55.082;38.772;2022-12-13T08:58:06;4.53;;;1.93;;
71947;SDS011;63257;55.082;38.772;2022-12-13T09:00:34;5.78;;;2.35;;
71947;SDS011;63257;55.082;38.772;2022-12-13T09:03:00;5.47;;;2.00;;
71947;SDS011;63257;55.082;38.772;2022-12-13T09:05:29;4.50;;;1.90;;
71947;SDS011;63257;55.082;38.772;2022-12-13T09:07:59;4.22;;;1.90;;
71947;SDS011;63257;55.082;38.772;2022-12-13T09:10:27;5.97;;;2.05;;
71947;SDS011;63257;55.082;38.772;2022-12-13T09:12:54;4.88;;;1.80;;
71947;SDS011;63257;55.082;38.772;2022-12-13T09:15:24;6.73;;;2.80;;
71947;SDS011;63257;55.082;38.772;2022-12-13T09:17:50;4.63;;;1.95;;
71947;SDS011;63257;55.082;38.772;2022-12-13T09:20:16;5.43;;;1.80;;
71947;SDS011;63257;55.082;38.772;2022-12-13T09:22:42;6.30;;;2.53;;
71947;SDS011;63257;55.082;38.772;2022-12-13T09:25:08;5.35;;;1.80;;
71947;SDS011;63257;55.082;38.772;2022-12-13T09:27:34;4.78;;;2.22;;
71947;SDS011;63257;55.082;38.772;2022-12-13T09:30:00;4.18;;;1.65;;
71947;SDS011;63257;55.082;38.772;2022-12-13T09:32:29;6.25;;;2.00;;
71947;SDS011;63257;55.082;38.772;2022-12-13T09:34:56;6.50;;;2.65;;
71947;SDS011;63257;55.082;38.772;2022-12-13T09:37:22;5.82;;;2.10;;
71947;SDS011;63257;55.082;38.772;2022-12-13T09:39:51;3.80;;;1.60;;
71947;SDS011;63257;55.082;38.772;2022-12-13T09:42:18;6.10;;;2.08;;
71947;SDS011;63257;55.082;38.772;2022-12-13T09:44:53;5.00;;;2.20;;
71947;SDS011;63257;55.082;38.772;2022-12-13T09:47:43;5.75;;;2.85;;
71947;SDS011;63257;55.082;38.772;2022-12-13T09:50:21;5.03;;;2.15;;
71947;SDS011;63257;55.082;38.772;2022-12-13T09:52:57;4.32;;;1.75;;
71947;SDS011;63257;55.082;38.772;2022-12-13T09:55:47;5.60;;;2.55;;
71947;SDS011;63257;55.082;38.772;2022-12-13T09:58:17;3.93;;;1.70;;
71947;SDS011;63257;55.082;38.772;2022-12-13T10:00:48;5.50;;;2.10;;
71947;SDS011;63257;55.082;38.772;2022-12-13T10:03:18;4.65;;;1.88;;
71947;SDS011;63257;55.082;38.772;2022-12-13T10:05:56;4.80;;;2.27;;
71947;SDS011;63257;55.082;38.772;2022-12-13T10:08:31;5.47;;;1.90;;
71947;SDS011;63257;55.082;38.772;2022-12-13T10:11:02;4.88;;;1.88;;
71947;SDS011;63257;55.082;38.772;2022-12-13T10:16:05;5.20;;;2.17;;
71947;SDS011;63257;55.082;38.772;2022-12-13T10:18:38;5.00;;;2.10;;
71947;SDS011;63257;55.082;38.772;2022-12-13T10:21:10;5.38;;;2.20;;
71947;SDS011;63257;55.082;38.772;2022-12-13T10:23:40;5.13;;;2.07;;
71947;SDS011;63257;55.082;38.772;2022-12-13T10:26:10;5.38;;;2.03;;
71947;SDS011;63257;55.082;38.772;2022-12-13T10:28:38;8.27;;;2.40;;
71947;SDS011;63257;55.082;38.772;2022-12-13T10:31:04;6.83;;;2.50;;
71947;SDS011;63257;55.082;38.772;2022-12-13T10:33:36;6.15;;;2.42;;
71947;SDS011;63257;55.082;38.772;2022-12-13T10:36:11;6.32;;;2.08;;
71947;SDS011;63257;55.082;38.772;2022-12-13T10:38:44;6.03;;;2.13;;
71947;SDS011;63257;55.082;38.772;2022-12-13T10:41:27;6.60;;;2.70;;
71947;SDS011;63257;55.082;38.772;2022-12-13T10:46:39;6.40;;;2.30;;
71947;SDS011;63257;55.082;38.772;2022-12-13T10:49:26;4.37;;;1.80;;
71947;SDS011;63257;55.082;38.772;2022-12-13T10:52:03;5.82;;;2.35;;
71947;SDS011;63257;55.082;38.772;2022-12-13T10:54:33;5.75;;;2.15;;
71947;SDS011;63257;55.082;38.772;2022-12-13T10:57:02;6.03;;;2.30;;
71947;SDS011;63257;55.082;38.772;2022-12-13T10:59:33;4.53;;;1.83;;
71947;SDS011;63257;55.082;38.772;2022-12-13T11:02:01;4.72;;;2.15;;
71947;SDS011;63257;55.082;38.772;2022-12-13T11:04:56;4.45;;;1.67;;
71947;SDS011;63257;55.082;38.772;2022-12-13T11:09:54;5.05;;;1.77;;
71947;SDS011;63257;55.082;38.772;2022-12-13T11:12:21;4.93;;;1.80;;
71947;SDS011;63257;55.082;38.772;2022-12-13T11:14:59;5.87;;;1.77;;
71947;SDS011;63257;55.082;38.772;2022-12-13T11:17:30;5.18;;;1.73;;
71947;SDS011;63257;55.082;38.772;2022-12-13T11:20:02;6.28;;;2.55;;
71947;SDS011;63257;55.082;38.772;2022-12-13T11:22:31;4.97;;;2.00;;
71947;SDS011;63257;55.082;38.772;2022-12-13T11:25:02;5.03;;;1.70;;
71947;SDS011;63257;55.082;38.772;2022-12-13T11:30:30;6.00;;;2.00;;
71947;SDS011;63257;55.082;38.772;2022-12-13T11:33:05;5.30;;;2.00;;
71947;SDS011;63257;55.082;38.772;2022-12-13T11:41:16;4.93;;;1.90;;
71947;SDS011;63257;55.082;38.772;2022-12-13T11:44:09;4.40;;;1.58;;
71947;SDS011;63257;55.082;38.772;2022-12-13T11:46:44;5.72;;;2.00;;
71947;SDS011;63257;55.082;38.772;2022-12-13T11:49:15;4.50;;;1.70;;
71947;SDS011;63257;55.082;38.772;2022-12-13T11:51:46;5.35;;;1.80;;
71947;SDS011;63257;55.082;38.772;2022-12-13T11:54:19;5.45;;;1.70;;
71947;SDS011;63257;55.082;38.772;2022-12-13T11:56:57;5.80;;;2.08;;
71947;SDS011;63257;55.082;38.772;2022-12-13T11:59:32;5.28;;;1.90;;
71947;SDS011;63257;55.082;38.772;2022-12-13T12:04:52;4.40;;;1.73;;
71947;SDS011;63257;55.082;38.772;2022-12-13T12:10:57;4.70;;;1.80;;
71947;SDS011;63257;55.082;38.772;2022-12-13T12:12:50;5.68;;;2.00;;
71947;SDS011;63257;55.082;38.772;2022-12-13T12:16:09;5.87;;;2.53;;
71947;SDS011;63257;55.082;38.772;2022-12-13T12:18:22;6.00;;;2.35;;
71947;SDS011;63257;55.082;38.772;2022-12-13T12:26:08;6.90;;;3.40;;
71947;SDS011;63257;55.082;38.772;2022-12-13T12:43:34;8.17;;;3.40;;
71947;SDS011;63257;55.082;38.772;2022-12-13T12:46:24;8.65;;;3.78;;
71947;SDS011;63257;55.082;38.772;2022-12-13T13:00:12;20.55;;;8.68;;
71947;SDS011;63257;55.082;38.772;2022-12-13T13:05:43;11.13;;;4.80;;
71947;SDS011;63257;55.082;38.772;2022-12-13T13:11:15;8.43;;;3.67;;
71947;SDS011;63257;55.082;38.772;2022-12-13T13:18:51;9.73;;;4.50;;
71947;SDS011;63257;55.082;38.772;2022-12-13T13:24:09;9.93;;;4.50;;
71947;SDS011;63257;55.082;38.772;2022-12-13T13:26:43;10.18;;;4.97;;
71947;SDS011;63257;55.082;38.772;2022-12-13T13:32:02;8.25;;;4.45;;
71947;SDS011;63257;55.082;38.772;2022-12-13T13:34:32;10.20;;;4.57;;
71947;SDS011;63257;55.082;38.772;2022-12-13T13:37:03;9.23;;;4.37;;
71947;SDS011;63257;55.082;38.772;2022-12-13T13:42:25;7.65;;;2.90;;
71947;SDS011;63257;55.082;38.772;2022-12-13T13:45:26;6.87;;;2.70;;
71947;SDS011;63257;55.082;38.772;2022-12-13T13:48:35;6.30;;;2.70;;
71947;SDS011;63257;55.082;38.772;2022-12-13T14:02:24;9.32;;;3.72;;
71947;SDS011;63257;55.082;38.772;2022-12-13T14:20:03;8.35;;;3.70;;
71947;SDS011;63257;55.082;38.772;2022-12-13T14:22:39;8.10;;;3.50;;
71947;SDS011;63257;55.082;38.772;2022-12-13T14:31:23;9.85;;;4.07;;
71947;SDS011;63257;55.082;38.772;2022-12-13T14:34:02;10.40;;;4.47;;
71947;SDS011;63257;55.082;38.772;2022-12-13T14:36:30;9.63;;;4.50;;
71947;SDS011;63257;55.082;38.772;2022-12-13T14:39:03;12.68;;;4.78;;
71947;SDS011;63257;55.082;38.772;2022-12-13T14:41:45;10.30;;;4.67;;
71947;SDS011;63257;55.082;38.772;2022-12-13T14:44:26;13.25;;;4.60;;
71947;SDS011;63257;55.082;38.772;2022-12-13T14:46:59;9.50;;;4.38;;
71947;SDS011;63257;55.082;38.772;2022-12-13T14:49:34;12.07;;;5.70;;
71947;SDS011;63257;55.082;38.772;2022-12-13T14:52:07;12.30;;;6.03;;
71947;SDS011;63257;55.082;38.772;2022-12-13T14:57:25;13.80;;;5.10;;
71947;SDS011;63257;55.082;38.772;2022-12-13T14:59:53;13.63;;;5.73;;
71947;SDS011;63257;55.082;38.772;2022-12-13T15:02:21;12.38;;;5.53;;
71947;SDS011;63257;55.082;38.772;2022-12-13T15:04:55;12.23;;;5.43;;
71947;SDS011;63257;55.082;38.772;2022-12-13T15:07:24;12.50;;;6.07;;
71947;SDS011;63257;55.082;38.772;2022-12-13T15:12:41;13.63;;;5.80;;
71947;SDS011;63257;55.082;38.772;2022-12-13T15:15:21;11.82;;;5.65;;
71947;SDS011;63257;55.082;38.772;2022-12-13T15:18:17;10.77;;;5.07;;
71947;SDS011;63257;55.082;38.772;2022-12-13T15:20:51;9.60;;;4.82;;
71947;SDS011;63257;55.082;38.772;2022-12-13T15:23:33;11.05;;;5.25;;
71947;SDS011;63257;55.082;38.772;2022-12-13T15:26:06;12.27;;;5.17;;
71947;SDS011;63257;55.082;38.772;2022-12-13T15:28:53;11.25;;;4.85;;
71947;SDS011;63257;55.082;38.772;2022-12-13T15:31:20;11.75;;;5.20;;
71947;SDS011;63257;55.082;38.772;2022-12-13T15:33:47;11.10;;;5.23;;
71947;SDS011;63257;55.082;38.772;2022-12-13T15:39:09;13.45;;;5.97;;
71947;SDS011;63257;55.082;38.772;2022-12-13T15:41:40;12.75;;;5.57;;
71947;SDS011;63257;55.082;38.772;2022-12-13T15:46:45;9.80;;;4.68;;
71947;SDS011;63257;55.082;38.772;2022-12-13T15:52:17;10.90;;;4.20;;
71947;SDS011;63257;55.082;38.772;2022-12-13T15:57:23;10.15;;;4.07;;
71947;SDS011;63257;55.082;38.772;2022-12-13T16:00:36;9.97;;;4.00;;
71947;SDS011;63257;55.082;38.772;2022-12-13T16:02:55;10.48;;;4.28;;
71947;SDS011;63257;55.082;38.772;2022-12-13T16:05:32;9.98;;;3.97;;
71947;SDS011;63257;55.082;38.772;2022-12-13T16:08:02;8.23;;;3.50;;
71947;SDS011;63257;55.082;38.772;2022-12-13T16:10:30;8.20;;;3.53;;
71947;SDS011;63257;55.082;38.772;2022-12-13T16:13:15;9.82;;;4.22;;
71947;SDS011;63257;55.082;38.772;2022-12-13T16:15:55;9.30;;;3.30;;
71947;SDS011;63257;55.082;38.772;2022-12-13T16:18:50;8.83;;;3.30;;
71947;SDS011;63257;55.082;38.772;2022-12-13T16:21:22;8.70;;;3.60;;
71947;SDS011;63257;55.082;38.772;2022-12-13T16:23:48;7.85;;;3.22;;
71947;SDS011;63257;55.082;38.772;2022-12-13T16:26:22;10.05;;;3.53;;
71947;SDS011;63257;55.082;38.772;2022-12-13T16:28:52;9.02;;;3.30;;
71947;SDS011;63257;55.082;38.772;2022-12-13T16:31:23;7.82;;;3.17;;
71947;SDS011;63257;55.082;38.772;2022-12-13T16:33:50;8.38;;;3.47;;
71947;SDS011;63257;55.082;38.772;2022-12-13T16:36:19;9.53;;;4.07;;
71947;SDS011;63257;55.082;38.772;2022-12-13T16:38:45;8.63;;;3.40;;
71947;SDS011;63257;55.082;38.772;2022-12-13T16:41:11;7.70;;;3.63;;
71947;SDS011;63257;55.082;38.772;2022-12-13T16:43:43;8.32;;;3.40;;
71947;SDS011;63257;55.082;38.772;2022-12-13T16:46:23;8.40;;;3.67;;
71947;SDS011;63257;55.082;38.772;2022-12-13T16:48:51;11.98;;;4.82;;
71947;SDS011;63257;55.082;38.772;2022-12-13T16:51:18;10.23;;;4.07;;
71947;SDS011;63257;55.082;38.772;2022-12-13T16:53:44;8.88;;;3.80;;
71947;SDS011;63257;55.082;38.772;2022-12-13T16:56:10;11.60;;;5.20;;
71947;SDS011;63257;55.082;38.772;2022-12-13T16:58:39;9.43;;;3.73;;
71947;SDS011;63257;55.082;38.772;2022-12-13T17:01:08;8.73;;;4.00;;
71947;SDS011;63257;55.082;38.772;2022-12-13T17:03:36;9.40;;;3.90;;
71947;SDS011;63257;55.082;38.772;2022-12-13T17:06:03;10.18;;;3.80;;
71947;SDS011;63257;55.082;38.772;2022-12-13T17:08:31;11.13;;;4.43;;
71947;SDS011;63257;55.082;38.772;2022-12-13T17:10:58;10.30;;;4.20;;
71947;SDS011;63257;55.082;38.772;2022-12-13T17:13:26;11.05;;;4.60;;
71947;SDS011;63257;55.082;38.772;2022-12-13T17:15:52;10.63;;;4.73;;
71947;SDS011;63257;55.082;38.772;2022-12-13T17:18:18;10.13;;;4.53;;
71947;SDS011;63257;55.082;38.772;2022-12-13T17:20:44;10.07;;;4.05;;
71947;SDS011;63257;55.082;38.772;2022-12-13T17:23:11;11.53;;;4.50;;
71947;SDS011;63257;55.082;38.772;2022-12-13T17:25:37;10.35;;;4.65;;
71947;SDS011;63257;55.082;38.772;2022-12-13T17:28:05;12.60;;;4.97;;
71947;SDS011;63257;55.082;38.772;2022-12-13T17:30:31;11.87;;;5.10;;
71947;SDS011;63257;55.082;38.772;2022-12-13T17:33:03;11.65;;;4.80;;